Mission, Canada
Current Conditions -  °F | °C
As of 12:00 AM on Sunday 26 Oct 2014 (Local Time) from CYXX Reporting Station
Moderate Rain Moderate Rain  
Wind Chill: 39°   Ceiling: 2000
Heat Index: 46°   Visibility: 4mi
Dew Point: 46°   Wind: 18mph
Humidity: 100%   Direction: 230°SW
Pressure: 29.62"   Gusts: NA
Location:  49.13°N, 122.3°W
Report Text: CYXX 260700Z 23016KT 4SM RA BR FEW008 SCT015 OVC020 08/08 A2962 RMK SF2SF1NS5 PRESRR SLP032
Loading
Personal Weather Stations






























Interactive Weather Map
Tropical Storm Tracking
New forecast layout! Learn more

10-Day Weather Forecast

Advertisements
Track Severe Weather on mobile